Time;durP1;ratioP1;P1;durP2;ratioP2;P2;SDS_P1;SDS_P2;PMS_P1;PMS_P2;Temp;Humidity;BMP_temperature;BMP_pressure;BME280_temperature;BME280_humidity;BME280_pressure;Samples;Min_cycle;Max_cycle;Signal;HPM_P1;HPM_P2
2022/07/12 00:02:16;;;;;;;3.55;1.80;;;;;;;20.54;100.00;94808.72;4996682;28;20466;-92
2022/07/12 00:04:41;;;;;;;1.90;1.55;;;;;;;20.62;100.00;94810.59;4982738;28;20038;-92
2022/07/12 00:07:07;;;;;;;3.70;1.83;;;;;;;20.62;100.00;94812.44;4983537;28;20037;-92
2022/07/12 00:09:33;;;;;;;4.70;1.83;;;;;;;20.60;100.00;94809.34;4983002;28;20078;-92
2022/07/12 00:12:05;;;;;;;2.85;1.65;;;;;;;20.62;100.00;94812.44;4966924;28;20026;-92
2022/07/12 00:14:31;;;;;;;2.00;1.52;;;;;;;20.49;100.00;94806.25;4966787;28;20041;-92
2022/07/12 00:16:56;;;;;;;7.18;1.98;;;;;;;20.44;100.00;94806.41;4967303;28;20137;-92
2022/07/12 00:19:22;;;;;;;3.67;1.80;;;;;;;20.09;100.00;94799.38;4982863;28;20113;-92
2022/07/12 00:21:47;;;;;;;9.13;2.20;;;;;;;19.95;100.00;94807.50;4982896;28;20034;-92
2022/07/12 00:24:13;;;;;;;4.32;1.80;;;;;;;20.08;100.00;94805.75;4982639;28;20026;-92
2022/07/12 00:26:38;;;;;;;3.25;1.73;;;;;;;19.97;100.00;94809.88;4982964;28;20069;-92
2022/07/12 00:29:03;;;;;;;7.28;2.80;;;;;;;19.62;100.00;94798.13;4982612;28;20113;-91
2022/07/12 00:31:29;;;;;;;4.05;1.90;;;;;;;19.44;100.00;94802.72;4999958;28;20036;-92
2022/07/12 00:33:54;;;;;;;8.18;2.50;;;;;;;19.22;100.00;94808.91;4966536;28;20117;-92
2022/07/12 00:36:20;;;;;;;2.80;1.80;;;;;;;19.22;100.00;94808.91;4999876;28;20046;-92
2022/07/12 00:38:45;;;;;;;3.72;1.88;;;;;;;19.50;100.00;94805.97;4999830;28;20351;-92
2022/07/12 00:41:11;;;;;;;2.85;1.90;;;;;;;19.57;100.00;94811.59;4982470;28;20033;-91
2022/07/12 00:43:36;;;;;;;3.83;2.08;;;;;;;19.62;100.00;94808.78;4982579;28;20038;-92
2022/07/12 00:46:02;;;;;;;4.40;1.70;;;;;;;19.61;100.00;94812.53;4966506;28;20042;-93
2022/07/12 00:48:27;;;;;;;1.92;1.50;;;;;;;19.77;100.00;94817.34;4982643;28;20061;-92
2022/07/12 00:50:53;;;;;;;6.00;1.73;;;;;;;19.75;100.00;94817.69;4966212;28;20089;-92
2022/07/12 00:53:23;;;;;;;4.70;2.03;;;;;;;19.74;100.00;94815.34;4966127;28;20030;-92
2022/07/12 00:55:52;;;;;;;7.47;2.33;;;;;;;19.64;100.00;94816.44;4982677;28;20073;-92
2022/07/12 00:58:19;;;;;;;5.65;2.10;;;;;;;19.58;100.00;94807.06;4966155;28;20038;-92
2022/07/12 01:00:47;;;;;;;3.78;1.77;;;;;;;19.68;100.00;94812.06;4982317;28;20022;-92
2022/07/12 01:03:14;;;;;;;5.05;1.98;;;;;;;19.48;100.00;94818.78;4982364;28;20066;-92
2022/07/12 01:05:42;;;;;;;4.70;1.70;;;;;;;19.50;100.00;94816.59;4982349;28;20369;-92
2022/07/12 01:08:10;;;;;;;7.07;1.85;;;;;;;19.59;100.00;94809.41;4981995;28;20030;-92
2022/07/12 01:10:36;;;;;;;2.75;1.70;;;;;;;19.56;100.00;94810.03;4966313;28;20033;-92
2022/07/12 01:13:02;;;;;;;1.98;1.65;;;;;;;19.56;100.00;94809.25;4982113;28;20042;-92
2022/07/12 01:15:30;;;;;;;5.35;2.00;;;;;;;19.85;100.00;94805.94;4981672;28;20041;-92
2022/07/12 01:17:57;;;;;;;3.90;1.92;;;;;;;20.14;100.00;94812.47;4966151;28;20026;-92
2022/07/12 01:20:22;;;;;;;2.80;1.73;;;;;;;20.19;100.00;94816.84;4981896;28;20082;-91
2022/07/12 01:22:57;;;;;;;3.53;1.83;;;;;;;20.28;100.00;94809.59;4981980;28;20109;-92
2022/07/12 01:25:23;;;;;;;3.35;1.63;;;;;;;19.88;100.00;94810.63;4981921;28;20165;-92
2022/07/12 01:27:48;;;;;;;3.55;1.73;;;;;;;20.05;100.00;94817.03;4971477;28;20472;-92
2022/07/12 01:30:13;;;;;;;3.47;1.92;;;;;;;20.27;100.00;94810.72;4974317;28;20061;-92
2022/07/12 01:32:39;;;;;;;7.43;1.80;;;;;;;20.18;100.00;94818.72;4979226;28;20034;-92
2022/07/12 01:35:06;;;;;;;2.75;2.05;;;;;;;20.18;100.00;94808.06;4946077;28;20499;-91
2022/07/12 01:37:39;;;;;;;2.20;1.60;;;;;;;20.42;100.00;94805.97;4980893;28;20440;-92
2022/07/12 01:40:06;;;;;;;2.00;1.60;;;;;;;20.05;100.00;94803.72;4981275;28;20447;-92
2022/07/12 01:42:32;;;;;;;2.55;1.67;;;;;;;20.12;100.00;94805.91;4998682;28;20105;-92
2022/07/12 01:44:58;;;;;;;3.28;1.50;;;;;;;20.19;100.00;94804.31;4981507;28;20101;-92
2022/07/12 01:47:28;;;;;;;2.78;1.70;;;;;;;20.18;100.00;94815.28;4965296;28;20085;-92
2022/07/12 01:49:53;;;;;;;2.30;1.83;;;;;;;20.12;100.00;94805.91;4965425;28;20036;-91
2022/07/12 01:52:19;;;;;;;2.28;1.95;;;;;;;19.86;100.00;94804.84;4981113;28;20030;-91
2022/07/12 01:54:45;;;;;;;4.70;1.75;;;;;;;20.11;100.00;94804.34;4981234;28;20034;-92
2022/07/12 01:57:10;;;;;;;3.08;1.80;;;;;;;20.23;100.00;94798.34;4981123;28;20355;-92
2022/07/12 01:59:36;;;;;;;2.67;1.90;;;;;;;20.22;100.00;94802.13;4981558;28;20034;-92
2022/07/12 02:02:02;;;;;;;2.90;1.80;;;;;;;19.77;100.00;94810.19;4998245;28;20033;-91
2022/07/12 02:04:27;;;;;;;5.93;2.05;;;;;;;19.70;100.00;94803.78;4981135;28;20041;-92
2022/07/12 02:06:54;;;;;;;1.60;1.50;;;;;;;19.71;100.00;94805.34;4980898;28;20065;-92
2022/07/12 02:09:19;;;;;;;2.42;1.88;;;;;;;19.68;100.00;94806.75;4980868;28;20030;-92
2022/07/12 02:11:46;;;;;;;3.50;1.92;;;;;;;19.90;100.00;94807.66;4980726;28;20038;-92
2022/07/12 02:14:13;;;;;;;4.05;1.52;;;;;;;20.04;100.00;94802.97;4964734;28;20034;-92
2022/07/12 02:16:39;;;;;;;2.28;1.77;;;;;;;20.13;100.00;94797.63;4964672;28;20037;-91
2022/07/12 02:19:05;;;;;;;6.38;1.67;;;;;;;20.00;100.00;94798.59;4964762;28;20037;-91
2022/07/12 02:21:33;;;;;;;2.88;1.85;;;;;;;19.77;100.00;94799.53;4997218;28;20034;-92
2022/07/12 02:23:59;;;;;;;3.67;2.08;;;;;;;19.74;100.00;94802.03;4964773;28;20018;-92
2022/07/12 02:26:24;;;;;;;2.45;1.75;;;;;;;19.55;100.00;94808.47;4997330;28;20033;-92
2022/07/12 02:28:50;;;;;;;3.30;2.00;;;;;;;19.36;100.00;94808.78;4997788;28;20091;-91
2022/07/12 02:31:15;;;;;;;5.95;2.10;;;;;;;19.25;100.00;94810.97;4964285;28;20034;-91
2022/07/12 02:33:41;;;;;;;2.97;1.42;;;;;;;19.29;100.00;94811.13;4980313;28;20026;-92
2022/07/12 02:36:07;;;;;;;4.45;1.65;;;;;;;19.56;100.00;94803.94;4980476;28;20392;-92
2022/07/12 02:39:21;;;;;;;3.70;1.75;;;;;;;19.75;100.00;94809.72;4980493;28;20416;-92
2022/07/12 02:41:47;;;;;;;3.35;1.90;;;;;;;19.57;100.00;94802.84;4997468;28;20022;-92
2022/07/12 02:44:13;;;;;;;3.38;1.75;;;;;;;19.23;100.00;94807.84;4996435;28;20057;-92
2022/07/12 02:46:38;;;;;;;2.50;1.98;;;;;;;19.15;100.00;94812.06;4996425;28;20030;-92
2022/07/12 02:49:04;;;;;;;7.03;2.03;;;;;;;18.99;100.00;94806.41;4996415;28;20094;-92
2022/07/12 02:51:29;;;;;;;2.45;1.60;;;;;;;19.12;100.00;94811.91;4996398;28;20026;-92
2022/07/12 02:53:54;;;;;;;4.05;2.10;;;;;;;19.03;100.00;94807.34;4996174;28;20030;-91
2022/07/12 02:56:20;;;;;;;7.20;2.00;;;;;;;19.02;100.00;94812.97;4996303;28;20101;-91
2022/07/12 02:58:45;;;;;;;4.50;1.70;;;;;;;19.24;100.00;94812.06;4979879;28;20026;-91
2022/07/12 03:01:11;;;;;;;2.95;1.77;;;;;;;19.48;100.00;94810.81;4980141;28;20026;-92
2022/07/12 03:03:36;;;;;;;3.85;1.70;;;;;;;19.50;100.00;94813.94;4996292;28;20025;-92
2022/07/12 03:06:02;;;;;;;3.35;1.80;;;;;;;19.72;100.00;94810.31;4996594;28;20054;-93
2022/07/12 03:08:28;;;;;;;5.63;1.88;;;;;;;19.38;100.00;94811.91;4996085;28;20068;-91
2022/07/12 03:10:53;;;;;;;2.50;1.85;;;;;;;19.52;100.00;94816.28;4996365;28;20073;-91
2022/07/12 03:13:18;;;;;;;5.00;1.70;;;;;;;19.56;100.00;94825.19;4995847;28;20082;-90
2022/07/12 03:15:45;;;;;;;2.92;1.75;;;;;;;19.63;100.00;94814.88;4997172;28;20431;-91
2022/07/12 03:18:11;;;;;;;2.17;1.90;;;;;;;19.66;100.00;94824.13;4977528;28;20030;-92
2022/07/12 03:20:39;;;;;;;4.30;1.98;;;;;;;19.25;100.00;94818.94;4964388;28;20478;-91
2022/07/12 03:23:04;;;;;;;4.15;2.10;;;;;;;19.02;100.00;94818.28;4976864;28;20026;-91
2022/07/12 03:25:30;;;;;;;3.20;1.98;;;;;;;19.28;100.00;94823.63;4979198;28;20072;-91
2022/07/12 03:27:56;;;;;;;7.28;2.00;;;;;;;19.48;100.00;94824.91;4962813;28;20030;-91
2022/07/12 03:30:31;;;;;;;3.80;2.03;;;;;;;19.39;100.00;94824.09;4944597;28;20336;-91
2022/07/12 03:32:57;;;;;;;3.13;1.83;;;;;;;19.42;100.00;94828.78;4960336;28;20090;-91
2022/07/12 03:35:23;;;;;;;7.53;1.90;;;;;;;19.00;100.00;94821.25;4960580;28;20034;-91
2022/07/12 03:37:50;;;;;;;2.35;1.65;;;;;;;19.06;100.00;94825.31;4945121;28;20082;-91
2022/07/12 03:40:19;;;;;;;4.97;1.92;;;;;;;19.04;100.00;94832.81;4970724;28;20084;-91
2022/07/12 03:42:45;;;;;;;2.55;2.10;;;;;;;19.19;100.00;94822.84;4967640;28;20122;-91
2022/07/12 03:45:11;;;;;;;2.75;2.00;;;;;;;18.99;100.00;94827.66;4967631;28;20026;-92
2022/07/12 03:47:37;;;;;;;2.47;1.98;;;;;;;18.96;100.00;94836.22;4983407;28;20030;-92
2022/07/12 03:50:05;;;;;;;3.22;1.90;;;;;;;19.04;100.00;94838.13;4983760;28;20034;-92
2022/07/12 03:52:34;;;;;;;4.32;2.25;;;;;;;19.17;100.00;94838.28;4983430;28;20038;-91
2022/07/12 03:55:02;;;;;;;3.58;2.00;;;;;;;19.43;100.00;94843.63;4967443;28;20030;-91
2022/07/12 03:57:27;;;;;;;3.65;1.88;;;;;;;19.41;100.00;94847.72;4983340;28;20034;-92
2022/07/12 03:59:53;;;;;;;3.30;2.10;;;;;;;19.11;100.00;94844.88;4967295;28;20436;-91
2022/07/12 04:02:18;;;;;;;3.47;2.05;;;;;;;19.10;100.00;94844.06;4983036;28;20022;-92
2022/07/12 04:04:44;;;;;;;4.25;2.15;;;;;;;19.12;100.00;94846.44;4983174;28;20031;-92
2022/07/12 04:07:10;;;;;;;2.70;2.10;;;;;;;19.06;100.00;94841.25;4983132;28;20077;-92
2022/07/12 04:09:36;;;;;;;4.25;1.90;;;;;;;19.07;100.00;94848.13;4983131;28;20026;-92
2022/07/12 04:12:01;;;;;;;3.83;1.90;;;;;;;19.30;100.00;94841.94;4966927;28;20052;-92
2022/07/12 04:14:28;;;;;;;4.60;2.17;;;;;;;19.67;100.00;94844.28;4982883;28;20109;-87
2022/07/12 04:16:57;;;;;;;3.10;2.03;;;;;;;19.85;100.00;94845.03;5000574;28;20048;-87
2022/07/12 04:19:32;;;;;;;4.65;2.00;;;;;;;19.97;100.00;94847.09;4983231;28;20410;-87
2022/07/12 04:21:58;;;;;;;5.68;2.00;;;;;;;19.88;100.00;94850.50;4983124;28;20034;-87
2022/07/12 04:27:18;;;;;;;4.80;2.13;;;;;;;19.81;100.00;94849.41;4964660;28;20034;-86
2022/07/12 04:29:44;;;;;;;3.10;1.92;;;;;;;19.97;100.00;94841.78;5000441;28;20041;-86
2022/07/12 04:32:09;;;;;;;2.20;1.65;;;;;;;20.37;100.00;94838.06;4999906;28;20031;-87
2022/07/12 04:34:34;;;;;;;2.78;1.73;;;;;;;20.59;100.00;94837.06;4982908;28;20037;-87
2022/07/12 04:37:00;;;;;;;3.28;1.90;;;;;;;20.75;100.00;94850.63;4982948;28;20041;-87
2022/07/12 04:39:25;;;;;;;4.95;1.92;;;;;;;20.76;100.00;94849.53;4982806;28;20452;-87
2022/07/12 04:41:51;;;;;;;9.05;2.58;;;;;;;20.20;100.00;94848.44;5000365;28;20034;-87
2022/07/12 04:44:16;;;;;;;3.58;2.00;;;;;;;19.89;100.00;94851.31;4999779;28;20038;-87
2022/07/12 04:46:42;;;;;;;3.60;1.83;;;;;;;20.03;100.00;94856.47;5000180;28;20034;-88
2022/07/12 04:49:07;;;;;;;8.95;2.05;;;;;;;20.35;100.00;94859.66;4999653;28;20042;-88
2022/07/12 04:52:16;;;;;;;4.75;1.98;;;;;;;20.08;100.00;94855.53;5000197;28;20042;-87
2022/07/12 04:54:42;;;;;;;5.88;1.80;;;;;;;20.55;100.00;94866.19;4982223;28;20035;-88
2022/07/12 04:57:07;;;;;;;5.32;2.00;;;;;;;21.38;100.00;94859.88;5000091;28;20458;-88
2022/07/12 04:59:33;;;;;;;4.50;1.92;;;;;;;21.73;100.00;94871.06;4999811;28;20045;-87
2022/07/12 05:01:58;;;;;;;3.05;2.00;;;;;;;21.36;100.00;94872.72;4982365;28;20116;-89
2022/07/12 05:04:23;;;;;;;4.90;2.17;;;;;;;21.61;100.00;94873.66;4966389;28;20022;-88
2022/07/12 05:06:49;;;;;;;3.10;1.70;;;;;;;21.82;100.00;94878.22;4982270;28;20045;-88
2022/07/12 05:09:15;;;;;;;3.35;2.20;;;;;;;22.10;100.00;94877.66;4999905;28;20443;-88
2022/07/12 05:11:40;;;;;;;3.47;1.65;;;;;;;22.34;100.00;94870.84;4982432;28;20038;-88
2022/07/12 05:14:06;;;;;;;2.83;2.00;;;;;;;21.26;100.00;94864.00;4999292;28;20089;-88
2022/07/12 05:16:31;;;;;;;7.25;2.05;;;;;;;21.44;100.00;94869.97;4999448;28;20347;-88
2022/07/12 05:18:57;;;;;;;2.78;1.80;;;;;;;22.03;100.00;94872.84;4999462;28;20038;-88
2022/07/12 05:21:23;;;;;;;3.13;2.15;;;;;;;21.81;100.00;94877.44;4982059;28;20030;-88
2022/07/12 05:23:48;;;;;;;3.17;2.08;;;;;;;22.24;100.00;94877.38;4999590;28;20463;-88
2022/07/12 05:26:13;;;;;;;3.97;1.95;;;;;;;21.80;100.00;94875.09;4982232;28;20080;-88
2022/07/12 05:28:39;;;;;;;4.00;1.85;;;;;;;22.35;100.00;94886.50;4999487;28;20045;-89
2022/07/12 05:31:04;;;;;;;4.03;1.98;;;;;;;22.31;100.00;94877.59;4982121;28;20040;-89
2022/07/12 05:33:30;;;;;;;7.57;1.83;;;;;;;22.70;100.00;94882.72;4981679;28;20034;-89
2022/07/12 05:35:55;;;;;;;4.90;1.90;;;;;;;22.35;100.00;94877.72;4999476;28;20332;-93
2022/07/12 05:38:20;;;;;;;3.88;1.83;;;;;;;21.14;100.00;94871.91;4981580;28;20038;-92
2022/07/12 05:40:46;;;;;;;3.85;1.88;;;;;;;21.37;100.00;94880.38;4998839;28;20029;-93
2022/07/12 05:43:11;;;;;;;9.30;1.80;;;;;;;22.16;100.00;94877.13;4981422;28;20088;-93
2022/07/12 05:45:37;;;;;;;2.63;1.75;;;;;;;22.20;100.00;94877.25;4981291;28;20034;-88
2022/07/12 05:48:02;;;;;;;3.63;1.90;;;;;;;22.09;100.00;94892.09;4998777;28;20081;-88
2022/07/12 05:50:28;;;;;;;5.03;1.70;;;;;;;21.30;100.00;94886.22;4980963;28;20436;-89
2022/07/12 05:55:38;;;;;;;3.13;1.77;;;;;;;22.03;100.00;94903.00;4984039;28;20129;-88
2022/07/12 05:58:03;;;;;;;4.97;1.77;;;;;;;20.90;100.00;94899.91;4981273;28;20061;-87
2022/07/12 06:00:29;;;;;;;4.72;1.88;;;;;;;20.59;100.00;94895.63;4980553;28;20352;-88
2022/07/12 06:02:54;;;;;;;5.88;2.25;;;;;;;20.63;100.00;94893.88;4981412;28;20030;-87
2022/07/12 06:05:20;;;;;;;5.65;2.20;;;;;;;20.62;100.00;94900.31;4981165;28;20030;-89
2022/07/12 06:07:45;;;;;;;3.42;1.88;;;;;;;21.28;100.00;94901.78;4981129;28;20045;-88
2022/07/12 06:10:11;;;;;;;2.83;1.77;;;;;;;22.00;100.00;94902.84;4998427;28;20353;-87
2022/07/12 06:12:37;;;;;;;4.30;1.73;;;;;;;22.07;100.00;94902.34;4981224;28;20038;-88
2022/07/12 06:15:03;;;;;;;3.20;1.70;;;;;;;22.51;100.00;94901.91;4981270;28;20034;-87
2022/07/12 06:17:29;;;;;;;6.72;1.77;;;;;;;22.57;100.00;94904.03;4998799;28;20105;-88
2022/07/12 06:19:54;;;;;;;4.53;1.75;;;;;;;22.68;100.00;94898.28;4981118;28;20387;-89
2022/07/12 06:22:21;;;;;;;3.47;1.70;;;;;;;22.79;100.00;94903.97;4998202;28;20058;-89
2022/07/12 06:24:46;;;;;;;3.30;1.50;;;;;;;23.11;100.00;94904.22;4998442;28;20038;-89
2022/07/12 06:27:12;;;;;;;3.00;2.08;;;;;;;22.93;100.00;94911.69;4980697;28;20027;-88
2022/07/12 06:29:37;;;;;;;3.90;1.83;;;;;;;22.21;100.00;94915.38;4980754;28;20057;-89
2022/07/12 06:32:02;;;;;;;8.90;1.95;;;;;;;23.23;100.00;94911.44;4980513;28;20325;-88
2022/07/12 06:34:28;;;;;;;3.08;1.63;;;;;;;23.64;100.00;94923.03;4997394;28;20034;-88
2022/07/12 06:36:53;;;;;;;4.78;1.92;;;;;;;23.82;100.00;94926.22;4997883;28;20335;-87
2022/07/12 06:39:19;;;;;;;3.03;1.60;;;;;;;23.56;100.00;94921.25;4964668;28;20034;-87
2022/07/12 06:41:44;;;;;;;4.53;1.80;;;;;;;24.26;100.00;94924.75;4980833;28;20324;-88
2022/07/12 06:44:09;;;;;;;5.80;1.92;;;;;;;23.76;100.00;94934.81;4980233;28;20026;-89
2022/07/12 06:46:35;;;;;;;7.25;2.20;;;;;;;23.23;100.00;94928.25;4997799;28;20383;-88
2022/07/12 06:49:00;;;;;;;3.85;2.22;;;;;;;23.29;100.00;94928.84;4980425;28;20030;-87
2022/07/12 06:51:26;;;;;;;5.55;2.10;;;;;;;24.60;98.67;94935.97;4997691;28;20033;-87
2022/07/12 06:53:51;;;;;;;4.60;1.80;;;;;;;24.27;100.00;94926.31;4964264;28;20032;-89
2022/07/12 06:56:17;;;;;;;2.50;1.50;;;;;;;24.25;100.00;94923.97;4980439;28;20400;-88
2022/07/12 06:58:42;;;;;;;4.55;1.83;;;;;;;24.10;100.00;94924.69;4997607;28;20046;-87
2022/07/12 07:01:08;;;;;;;5.68;1.80;;;;;;;23.99;100.00;94925.16;4997873;28;20113;-88
2022/07/12 07:03:33;;;;;;;4.05;1.63;;;;;;;23.37;100.00;94932.50;4997533;28;20416;-88
2022/07/12 07:05:58;;;;;;;4.65;1.80;;;;;;;24.58;100.00;94940.88;4997530;28;20101;-89
2022/07/12 07:08:24;;;;;;;3.40;1.70;;;;;;;24.07;100.00;94926.16;4980399;28;20038;-90
2022/07/12 07:10:50;;;;;;;1.80;1.70;;;;;;;24.33;100.00;94927.59;4997489;28;20091;-87
2022/07/12 07:13:15;;;;;;;4.10;2.03;;;;;;;24.50;100.00;94937.25;4996930;28;20035;-87
2022/07/12 07:15:41;;;;;;;9.60;2.08;;;;;;;24.61;100.00;94940.19;4997353;28;20068;-87
2022/07/12 07:18:07;;;;;;;9.00;1.83;;;;;;;25.04;100.00;94947.78;4997697;28;20044;-89
2022/07/12 07:20:32;;;;;;;6.10;2.10;;;;;;;24.50;100.00;94942.59;4980096;28;20026;-88
2022/07/12 07:22:58;;;;;;;3.75;1.52;;;;;;;24.62;100.00;94949.78;4963747;28;20474;-89
2022/07/12 07:25:23;;;;;;;7.63;1.70;;;;;;;25.11;100.00;94950.63;4997592;28;20034;-89
2022/07/12 07:27:49;;;;;;;6.57;1.92;;;;;;;25.88;99.09;94951.19;4997291;28;20031;-89
2022/07/12 07:32:58;;;;;;;7.53;1.92;;;;;;;25.33;98.58;94945.75;4996953;28;20129;-91
2022/07/12 07:35:24;;;;;;;3.03;1.52;;;;;;;25.20;100.00;94953.13;4979624;28;20050;-93
2022/07/12 07:37:49;;;;;;;3.42;1.70;;;;;;;25.26;100.00;94949.84;4980200;28;20027;-92
2022/07/12 07:40:15;;;;;;;5.25;2.30;;;;;;;24.05;100.00;94957.81;4963394;28;20590;-92
2022/07/12 07:42:40;;;;;;;3.67;1.60;;;;;;;24.74;100.00;94951.59;4963448;28;20026;-93
2022/07/12 07:45:07;;;;;;;5.57;2.03;;;;;;;24.19;100.00;94954.78;4963508;28;20096;-92
2022/07/12 07:47:46;;;;;;;5.82;2.20;;;;;;;24.03;100.00;94962.75;4997001;28;20044;-92
2022/07/12 07:50:11;;;;;;;7.32;2.38;;;;;;;24.60;100.00;94957.38;4979355;28;20026;-94
2022/07/12 07:52:44;;;;;;;6.85;3.05;;;;;;;24.57;100.00;94955.41;4979676;28;20038;-92
2022/07/12 07:55:09;;;;;;;3.75;2.13;;;;;;;25.27;100.00;94959.44;4996858;28;20026;-87
2022/07/12 07:57:35;;;;;;;12.32;2.53;;;;;;;24.59;100.00;94953.16;4997082;28;20026;-88
2022/07/12 08:00:01;;;;;;;5.70;2.10;;;;;;;25.17;100.00;94953.81;4979929;28;20121;-87
2022/07/12 08:02:26;;;;;;;3.15;2.15;;;;;;;25.34;100.00;94960.72;4978957;28;20034;-87
2022/07/12 08:04:52;;;;;;;6.90;2.10;;;;;;;24.45;100.00;94966.16;4979966;28;20030;-88
2022/07/12 08:07:17;;;;;;;5.90;2.35;;;;;;;25.48;100.00;94960.28;4997051;28;20030;-87
2022/07/12 08:09:42;;;;;;;6.28;2.05;;;;;;;24.79;100.00;94972.03;4979920;28;20034;-89
2022/07/12 08:12:32;;;;;;;8.30;2.20;;;;;;;24.16;100.00;94965.38;4979472;28;20022;-87
2022/07/12 08:15:01;;;;;;;7.07;2.05;;;;;;;25.16;100.00;94969.13;4996811;28;20038;-89
2022/07/12 08:17:26;;;;;;;6.60;2.45;;;;;;;25.82;100.00;94977.56;4997069;28;20053;-89
2022/07/12 08:19:52;;;;;;;8.73;2.60;;;;;;;26.18;100.00;94971.38;4997021;28;20065;-89
2022/07/12 08:22:19;;;;;;;7.30;2.38;;;;;;;26.22;100.00;94977.59;4979344;28;20034;-90
2022/07/12 08:24:55;;;;;;;;;;;;;;;;;;;;;
2022/07/12 08:27:20;;;;;;;6.68;2.95;;;;;;;25.65;100.00;94972.56;4984257;28;20018;-91
2022/07/12 08:29:46;;;;;;;6.93;2.92;;;;;;;25.73;100.00;94970.81;5000501;28;20393;-92
2022/07/12 08:32:11;;;;;;;12.40;3.60;;;;;;;25.38;100.00;94966.94;4982546;28;20050;-93
2022/07/12 08:34:37;;;;;;;7.40;3.75;;;;;;;25.36;100.00;94971.88;5000103;28;20030;-92
2022/07/12 08:37:03;;;;;;;12.43;3.83;;;;;;;24.88;100.00;94969.97;5000253;28;20065;-92
2022/07/12 08:39:28;;;;;;;8.40;3.45;;;;;;;25.53;100.00;94968.84;4982825;28;20037;-92
2022/07/12 08:42:31;;;;;;;5.70;3.40;;;;;;;25.34;100.00;94969.56;4999888;28;20026;-91
2022/07/12 08:44:57;;;;;;;8.80;3.88;;;;;;;25.24;100.00;94970.84;4999703;28;20486;-91
2022/07/12 08:47:23;;;;;;;8.52;4.00;;;;;;;25.37;100.00;94976.91;4982573;28;20030;-88
2022/07/12 08:50:16;;;;;;;17.00;3.88;;;;;;;26.54;100.00;94982.84;5000000;28;20031;-90
2022/07/12 08:52:47;;;;;;;9.20;3.03;;;;;;;26.70;100.00;94982.72;4982382;28;20030;-89
2022/07/12 08:55:21;;;;;;;10.70;3.72;;;;;;;25.29;100.00;94983.22;4982397;28;20507;-89
2022/07/12 08:57:48;;;;;;;12.05;4.00;;;;;;;24.29;100.00;94994.44;4999510;28;20026;-89
2022/07/12 09:00:14;;;;;;;14.05;3.33;;;;;;;25.13;100.00;94989.34;4982709;28;20034;-90
2022/07/12 09:02:53;;;;;;;8.70;4.50;;;;;;;24.27;100.00;94990.56;4981963;28;20340;-88
2022/07/12 09:05:23;;;;;;;9.50;3.42;;;;;;;26.01;100.00;94988.66;5000026;28;20432;-91
2022/07/12 09:07:49;;;;;;;6.25;3.10;;;;;;;26.80;96.23;94982.16;4982080;28;20046;-90
2022/07/12 09:10:15;;;;;;;6.40;3.08;;;;;;;27.12;97.58;94978.50;4982393;28;20164;-92
2022/07/12 09:12:41;;;;;;;11.77;3.28;;;;;;;27.04;94.90;94988.34;4980721;28;20348;-90
2022/07/12 09:15:26;;;;;;;5.82;2.85;;;;;;;27.36;98.29;94998.06;4975531;28;20049;-95
2022/07/12 09:18:12;;;;;;;16.33;3.40;;;;;;;26.46;98.21;94987.25;4982211;28;20022;-93
2022/07/12 09:20:39;;;;;;;17.20;2.88;;;;;;;27.44;98.36;94986.28;4982825;28;20467;-91
2022/07/12 09:23:07;;;;;;;8.77;2.67;;;;;;;27.76;98.25;94994.06;4966027;28;20034;-92
2022/07/12 09:25:35;;;;;;;8.25;3.00;;;;;;;27.52;93.87;94987.94;4999259;28;20460;-94
2022/07/12 09:28:08;;;;;;;10.60;2.85;;;;;;;27.35;89.13;94996.50;4966350;28;20563;-90
2022/07/12 09:30:36;;;;;;;9.00;2.63;;;;;;;27.50;96.23;94990.19;4982179;28;20038;-93
2022/07/12 09:36:10;;;;;;;5.25;2.40;;;;;;;26.46;98.56;94978.44;4984313;28;20037;-90
2022/07/12 09:38:53;;;;;;;14.52;2.92;;;;;;;26.18;100.00;94982.91;4981661;28;20030;-94
2022/07/12 09:41:20;;;;;;;9.35;3.10;;;;;;;26.33;100.00;94986.66;4981858;28;20458;-92
2022/07/12 09:43:46;;;;;;;9.13;3.25;;;;;;;26.41;99.44;94990.25;4965452;28;20019;-91
2022/07/12 09:46:13;;;;;;;11.93;3.20;;;;;;;26.51;100.00;94988.91;4981649;28;20340;-90
2022/07/12 09:48:40;;;;;;;7.97;2.95;;;;;;;26.67;95.85;94991.50;4965562;28;20049;-90
2022/07/12 09:51:08;;;;;;;11.60;2.70;;;;;;;27.18;91.39;94992.38;4981297;28;20022;-89
2022/07/12 09:53:53;;;;;;;9.25;2.60;;;;;;;27.10;93.85;94997.66;4981083;28;20475;-94
2022/07/12 09:56:22;;;;;;;4.82;2.58;;;;;;;27.11;93.29;94995.72;4965416;28;20022;-93
2022/07/12 09:58:54;;;;;;;7.28;2.88;;;;;;;27.24;89.55;94990.97;4965414;28;20033;-91
2022/07/12 10:01:23;;;;;;;7.78;2.83;;;;;;;27.86;84.75;94999.97;4981111;28;20026;-93
2022/07/12 10:03:49;;;;;;;5.78;2.50;;;;;;;28.07;80.56;94989.47;4973508;28;20026;-89
2022/07/12 10:06:25;;;;;;;6.40;2.17;;;;;;;28.42;80.65;94986.84;4977732;28;20030;-90
2022/07/12 10:08:53;;;;;;;7.22;2.58;;;;;;;27.59;85.85;94991.91;4964793;28;20037;-87
2022/07/12 10:11:25;;;;;;;9.57;2.70;;;;;;;27.70;84.98;94981.28;4981477;28;20038;-86
2022/07/12 10:13:51;;;;;;;8.77;2.67;;;;;;;28.93;81.99;94985.47;4980556;28;20038;-88
2022/07/12 10:16:24;;;;;;;5.88;2.40;;;;;;;28.56;83.65;94981.63;4981298;28;20030;-87
2022/07/12 10:19:25;;;;;;;8.85;2.30;;;;;;;27.55;87.53;94985.69;4998503;28;20042;-87
2022/07/12 10:21:51;;;;;;;10.20;2.80;;;;;;;26.82;93.86;94987.16;4997796;28;20343;-87
2022/07/12 10:24:32;;;;;;;5.47;1.92;;;;;;;27.31;90.44;94985.69;4980652;28;20068;-87
2022/07/12 10:27:13;;;;;;;11.75;2.88;;;;;;;27.61;91.78;94981.56;4997967;28;20038;-87
2022/07/12 10:29:39;;;;;;;8.60;2.00;;;;;;;27.44;92.70;94982.81;4997725;28;20057;-87
2022/07/12 10:32:37;;;;;;;6.85;2.72;;;;;;;26.64;96.32;94986.84;4980725;28;20108;-88
2022/07/12 10:35:07;;;;;;;5.60;2.22;;;;;;;26.21;99.72;94976.03;4964208;28;20041;-87
2022/07/12 10:37:34;;;;;;;6.80;2.40;;;;;;;26.10;99.66;94981.94;4980863;28;20466;-87
2022/07/12 10:40:20;;;;;;;5.30;2.15;;;;;;;26.92;91.00;94983.91;4980695;28;20034;-85
2022/07/12 10:43:00;;;;;;;5.63;2.30;;;;;;;26.64;95.09;94986.84;4997916;28;20320;-86
2022/07/12 10:45:33;;;;;;;8.18;2.40;;;;;;;26.65;96.87;94991.84;4997714;28;20030;-86
2022/07/12 10:48:01;;;;;;;3.97;2.08;;;;;;;26.62;95.44;94983.75;4997215;28;20030;-87
2022/07/12 10:53:20;;;;;;;3.55;2.13;;;;;;;26.77;94.83;94980.19;4997096;28;20034;-87
2022/07/12 10:56:04;;;;;;;12.75;2.88;;;;;;;26.20;93.80;94987.91;4997428;28;20054;-86
2022/07/12 10:58:36;;;;;;;;;;;;;;;27.20;87.34;94993.59;4997903;28;20037;-87
2022/07/12 11:01:03;;;;;;;6.15;1.85;;;;;;;27.48;88.93;95000.56;4997184;28;19957;-86
2022/07/12 11:03:37;;;;;;;6.25;1.90;;;;;;;28.01;87.17;94988.25;4979742;28;20069;-87
2022/07/12 11:06:03;;;;;;;5.65;2.15;;;;;;;26.44;97.89;94994.91;4997715;28;20034;-86
2022/07/12 11:08:34;;;;;;;5.03;1.85;;;;;;;27.44;87.45;94994.34;4997136;28;20034;-86
2022/07/12 11:11:00;;;;;;;4.93;2.00;;;;;;;28.26;78.57;94979.72;4997663;28;20034;-87
2022/07/12 11:13:25;;;;;;;5.07;1.73;;;;;;;28.63;82.64;94983.63;4996981;28;20038;-87
2022/07/12 11:16:00;;;;;;;5.72;1.60;;;;;;;28.59;83.17;94982.78;4980260;28;20038;-87
2022/07/12 11:18:33;;;;;;;5.78;2.05;;;;;;;30.16;73.96;94980.94;4979925;28;20375;-89
2022/07/12 11:20:59;;;;;;;;;;;;;;;28.14;78.04;94988.03;4980140;28;20037;-87
2022/07/12 11:23:26;;;;;;;7.50;2.00;;;;;;;27.73;84.01;94984.03;4979794;28;20285;-88
2022/07/12 11:25:57;;;;;;;7.50;2.28;;;;;;;26.65;83.75;94983.03;4997341;28;20391;-87
2022/07/12 11:28:30;;;;;;;5.10;1.95;;;;;;;26.65;92.01;94975.72;4979885;28;20036;-87
2022/07/12 11:31:21;;;;;;;;;;;;;;;26.68;89.80;94982.31;4997616;28;20034;-87
2022/07/12 11:33:48;;;;;;;5.78;1.90;;;;;;;27.74;85.71;94977.50;4992811;28;20008;-88
2022/07/12 11:36:14;;;;;;;5.55;1.95;;;;;;;27.72;88.05;94974.41;4980052;28;20423;-88
2022/07/12 11:38:42;;;;;;;5.97;1.90;;;;;;;27.55;88.66;94975.69;4980035;28;20034;-86
2022/07/12 11:41:09;;;;;;;5.53;2.40;;;;;;;26.90;86.76;94980.00;4996772;28;20036;-86
2022/07/12 11:43:36;;;;;;;7.55;1.70;;;;;;;26.88;93.09;94976.91;4963241;28;20433;-88
2022/07/12 11:46:03;;;;;;;4.00;2.00;;;;;;;28.11;80.96;94964.50;4979819;28;20034;-87
2022/07/12 11:48:32;;;;;;;6.22;2.13;;;;;;;27.47;82.08;94965.94;4963480;28;20088;-86